Time;durP1;ratioP1;P1;durP2;ratioP2;P2;SDS_P1;SDS_P2;PMS_P1;PMS_P2;Temp;Humidity;BMP_temperature;BMP_pressure;BME280_temperature;BME280_humidity;BME280_pressure;Samples;Min_cycle;Max_cycle;Signal;HPM_P1;HPM_P2
2020/12/24 00:02:17;;;;;;;;;;;;;;;14.74;67.23;100035.44;6050265;23;96502;-87
2020/12/24 00:04:43;;;;;;;;;;;;;;;14.62;67.65;100046.84;6042184;23;98102;-85
2020/12/24 00:07:09;;;;;;;;;;;;;;;14.45;68.41;100039.06;6039107;23;98132;-85
2020/12/24 00:09:37;;;;;;;;;;;;;;;14.87;66.88;100053.25;6039045;23;96688;-86
2020/12/24 00:12:07;;;;;;;;;;;;;;;14.65;67.55;100046.63;6034836;23;96930;-85
2020/12/24 00:14:33;;;;;;;;;;;;;;;14.64;67.72;100044.94;6036970;23;99558;-86
2020/12/24 00:16:59;;;;;;;;;;;;;;;15.01;66.32;100045.25;6037248;23;101205;-85
2020/12/24 00:19:25;;;;;;;;;;;;;;;15.15;65.61;100045.22;6037390;23;96968;-85
2020/12/24 00:21:50;;;;;;;;;;;;;;;15.02;65.86;100034.53;6036887;23;96832;-85
2020/12/24 00:24:16;;;;;;;;;;;;;;;14.86;66.88;100038.25;6038504;23;100580;-86
2020/12/24 00:26:44;;;;;;;;;;;;;;;14.88;66.68;100028.38;6037418;23;98164;-86
2020/12/24 00:29:10;;;;;;;;;;;;;;;14.75;67.01;100031.81;6037379;23;96718;-86
2020/12/24 00:31:36;;;;;;;;;;;;;;;14.95;66.52;100045.66;6035440;23;96819;-87
2020/12/24 00:34:03;;;;;;;;;;;;;;;15.18;65.72;100047.66;6037734;23;97269;-86
2020/12/24 00:36:30;;;;;;;;;;;;;;;15.18;65.63;100045.00;6036551;23;101058;-85
2020/12/24 00:38:56;;;;;;;;;;;;;;;14.98;66.64;100040.13;6049211;23;96607;-88
2020/12/24 00:41:22;;;;;;;;;;;;;;;15.07;66.15;100034.22;6056776;23;96081;-85
2020/12/24 00:43:48;;;;;;;;;;;;;;;15.04;66.16;100037.91;6055682;23;99177;-87
2020/12/24 00:46:17;;;;;;;;;;;;;;;14.90;66.68;100047.75;6056642;23;96993;-88
2020/12/24 00:48:43;;;;;;;;;;;;;;;14.79;67.13;100045.75;6056774;23;95937;-87
2020/12/24 00:51:09;;;;;;;;;;;;;;;14.89;66.72;100049.56;6046445;23;96527;-86
2020/12/24 00:53:35;;;;;;;;;;;;;;;15.06;66.07;100045.81;6041252;23;100164;-86
2020/12/24 00:56:10;;;;;;;;;;;;;;;15.02;66.19;100045.16;6041139;23;99512;-89
2020/12/24 00:58:37;;;;;;;;;;;;;;;14.97;65.95;100036.59;6046067;23;96576;-86
2020/12/24 01:01:03;;;;;;;;;;;;;;;14.92;66.02;100043.16;6043564;23;96668;-86
2020/12/24 01:03:30;;;;;;;;;;;;;;;14.80;66.54;100043.97;6050862;23;98365;-86
2020/12/24 01:05:56;;;;;;;;;;;;;;;14.92;65.73;100038.72;6053227;23;98181;-86
2020/12/24 01:08:22;;;;;;;;;;;;;;;14.73;66.34;100033.72;6051200;23;96684;-86
2020/12/24 01:10:47;;;;;;;;;;;;;;;14.64;66.56;100022.78;6024638;23;96902;-86
2020/12/24 01:13:13;;;;;;;;;;;;;;;14.69;66.45;100034.88;6051354;23;98195;-87
2020/12/24 01:15:39;;;;;;;;;;;;;;;14.55;66.54;100036.69;6051200;23;99141;-86
2020/12/24 01:18:05;;;;;;;;;;;;;;;14.66;66.34;100036.84;6055576;23;96014;-87
2020/12/24 01:20:32;;;;;;;;;;;;;;;14.63;66.67;100037.94;6056318;23;96116;-86
2020/12/24 01:22:59;;;;;;;;;;;;;;;14.72;66.49;100047.97;6030666;23;97857;-85
2020/12/24 01:25:25;;;;;;;;;;;;;;;14.76;65.94;100038.00;6055661;23;97882;-87
2020/12/24 01:27:51;;;;;;;;;;;;;;;14.83;65.50;100030.47;6048035;23;96635;-87
2020/12/24 01:30:17;;;;;;;;;;;;;;;14.81;65.82;100035.03;6041825;23;96582;-88
2020/12/24 01:32:43;;;;;;;;;;;;;;;14.95;65.12;100032.34;6038921;23;101157;-88
2020/12/24 01:35:09;;;;;;;;;;;;;;;15.12;64.60;100018.78;6039499;23;98111;-87
2020/12/24 01:37:38;;;;;;;;;;;;;;;14.87;64.98;100013.38;6042169;23;96699;-87
2020/12/24 01:40:05;;;;;;;;;;;;;;;14.87;65.13;100008.03;6040704;23;96572;-87
2020/12/24 01:42:31;;;;;;;;;;;;;;;14.77;65.31;100006.94;6038851;23;102080;-86
2020/12/24 01:44:57;;;;;;;;;;;;;;;14.57;65.74;100000.25;6040122;23;98742;-87
2020/12/24 01:47:24;;;;;;;;;;;;;;;14.54;65.71;100006.59;6042337;23;96899;-86
2020/12/24 01:49:49;;;;;;;;;;;;;;;14.82;64.92;99999.50;6044482;23;96532;-86
2020/12/24 01:52:27;;;;;;;;;;;;;;;14.63;65.52;99983.91;6042667;23;100852;-86
2020/12/24 01:54:54;;;;;;;;;;;;;;;14.41;66.17;99994.19;6041418;23;98902;-87
2020/12/24 01:57:21;;;;;;;;;;;;;;;14.50;65.88;99988.28;6041715;23;96584;-87
2020/12/24 01:59:47;;;;;;;;;;;;;;;14.31;66.53;99988.53;6044820;23;96911;-85
2020/12/24 02:02:13;;;;;;;;;;;;;;;13.84;67.62;99984.38;6053928;23;100668;-86
2020/12/24 02:04:39;;;;;;;;;;;;;;;14.15;67.11;99977.16;6054495;23;97795;-86
2020/12/24 02:07:05;;;;;;;;;;;;;;;14.30;66.22;99966.44;6054093;23;96523;-86
2020/12/24 02:09:32;;;;;;;;;;;;;;;14.20;66.58;99964.44;6046799;23;96940;-85
2020/12/24 02:11:59;;;;;;;;;;;;;;;14.49;65.81;99957.34;6053651;23;98081;-86
2020/12/24 02:14:25;;;;;;;;;;;;;;;14.36;65.82;99959.88;6054987;23;97883;-85
2020/12/24 02:16:51;;;;;;;;;;;;;;;14.33;65.86;99962.72;6052009;23;97154;-86
2020/12/24 02:19:18;;;;;;;;;;;;;;;14.46;65.29;99961.03;6048904;23;96551;-87
2020/12/24 02:21:45;;;;;;;;;;;;;;;14.32;65.76;99953.03;6054958;23;99110;-87
2020/12/24 02:24:11;;;;;;;;;;;;;;;14.44;65.20;99964.75;6054244;23;99900;-86
2020/12/24 02:26:37;;;;;;;;;;;;;;;14.18;66.24;99961.03;6056047;23;95806;-87
2020/12/24 02:29:03;;;;;;;;;;;;;;;14.26;65.99;99948.97;6056121;23;96450;-87
2020/12/24 02:31:29;;;;;;;;;;;;;;;14.27;65.61;99939.19;6055883;23;97005;-87
2020/12/24 02:33:55;;;;;;;;;;;;;;;14.49;64.75;99947.56;6054446;23;97940;-88
2020/12/24 02:36:22;;;;;;;;;;;;;;;14.36;65.33;99944.81;6053124;23;96838;-87
2020/12/24 02:38:49;;;;;;;;;;;;;;;14.36;65.48;99941.28;6046853;23;96598;-85
2020/12/24 02:41:16;;;;;;;;;;;;;;;13.92;67.02;99944.91;6043822;23;100943;-89
2020/12/24 02:43:45;;;;;;;;;;;;;;;14.39;65.94;99942.91;6039331;23;98214;-87
2020/12/24 02:46:11;;;;;;;;;;;;;;;14.54;65.16;99939.28;6038948;23;96675;-87
2020/12/24 02:48:37;;;;;;;;;;;;;;;14.35;65.82;99936.91;6038781;23;96835;-89
2020/12/24 02:51:03;;;;;;;;;;;;;;;14.54;65.12;99933.97;6040252;23;98969;-87
2020/12/24 02:53:29;;;;;;;;;;;;;;;14.68;64.74;99926.81;6048960;23;99079;-87
2020/12/24 02:55:56;;;;;;;;;;;;;;;14.47;65.21;99930.84;6055191;23;96477;-87
2020/12/24 02:58:22;;;;;;;;;;;;;;;14.37;65.50;99927.06;6055854;23;96052;-87
2020/12/24 03:00:48;;;;;;;;;;;;;;;14.24;66.03;99932.25;6046006;23;100030;-88
2020/12/24 03:03:16;;;;;;;;;;;;;;;14.31;65.95;99935.38;6043045;23;98107;-88
2020/12/24 03:05:42;;;;;;;;;;;;;;;14.48;65.34;99937.88;6042665;23;98342;-88
2020/12/24 03:08:07;;;;;;;;;;;;;;;14.35;66.01;99939.56;6037159;23;96876;-88
2020/12/24 03:10:33;;;;;;;;;;;;;;;14.30;65.91;99933.69;6035807;23;97768;-88
2020/12/24 03:13:03;;;;;;;;;;;;;;;14.28;66.08;99930.28;6036761;23;98079;-88
2020/12/24 03:15:29;;;;;;;;;;;;;;;14.40;65.72;99912.72;6037144;23;96692;-88
2020/12/24 03:17:55;;;;;;;;;;;;;;;14.30;65.94;99909.78;6036526;23;96914;-88
2020/12/24 03:20:21;;;;;;;;;;;;;;;14.13;66.30;99913.50;6036836;23;99578;-88
2020/12/24 03:22:46;;;;;;;;;;;;;;;14.26;65.96;99910.91;6035576;23;101407;-88
2020/12/24 03:25:12;;;;;;;;;;;;;;;14.30;65.89;99900.00;6042953;23;96774;-87
2020/12/24 03:27:38;;;;;;;;;;;;;;;14.44;65.08;99893.81;6048663;23;96641;-87
2020/12/24 03:30:05;;;;;;;;;;;;;;;14.19;66.02;99891.00;6013073;23;96876;-87
2020/12/24 03:32:32;;;;;;;;;;;;;;;14.43;65.43;99897.44;6021948;23;99235;-87
2020/12/24 03:34:58;;;;;;;;;;;;;;;14.34;65.75;99890.03;6043682;23;97057;-87
2020/12/24 03:37:23;;;;;;;;;;;;;;;14.54;64.99;99881.66;6037269;23;96634;-87
2020/12/24 03:39:49;;;;;;;;;;;;;;;14.31;65.06;99885.75;6037817;23;99937;-87
2020/12/24 03:42:15;;;;;;;;;;;;;;;14.52;64.96;99894.19;6038628;23;99293;-87
2020/12/24 03:44:41;;;;;;;;;;;;;;;14.67;64.55;99903.81;6016276;23;96638;-86
2020/12/24 03:47:08;;;;;;;;;;;;;;;14.49;65.18;99907.69;6042252;23;96724;-87
2020/12/24 03:49:34;;;;;;;;;;;;;;;13.77;67.59;99898.06;6041894;23;97934;-87
2020/12/24 03:52:00;;;;;;;;;;;;;;;13.87;66.96;99896.53;6045220;23;97977;-88
2020/12/24 03:54:25;;;;;;;;;;;;;;;13.39;68.05;99887.13;6048426;23;96529;-87
2020/12/24 03:56:52;;;;;;;;;;;;;;;13.47;67.48;99879.56;6053545;23;96645;-87
2020/12/24 03:59:18;;;;;;;;;;;;;;;13.77;66.78;99889.25;6052915;23;97180;-87
2020/12/24 04:01:44;;;;;;;;;;;;;;;14.22;65.22;99877.53;6050441;23;99024;-87
2020/12/24 04:04:10;;;;;;;;;;;;;;;14.33;64.30;99883.00;6031567;23;95870;-85
2020/12/24 04:06:36;;;;;;;;;;;;;;;13.85;66.13;99889.59;6057111;23;96769;-86
2020/12/24 04:09:03;;;;;;;;;;;;;;;14.11;65.34;99899.44;6047021;23;99437;-88
2020/12/24 04:11:29;;;;;;;;;;;;;;;14.19;65.13;99893.66;6043940;23;98954;-87
2020/12/24 04:13:54;;;;;;;;;;;;;;;14.27;65.23;99883.41;6047741;23;96871;-88
2020/12/24 04:16:21;;;;;;;;;;;;;;;14.50;64.32;99873.97;6045120;23;96725;-88
2020/12/24 04:18:46;;;;;;;;;;;;;;;14.35;64.73;99873.13;6045247;23;99062;-87
2020/12/24 04:21:13;;;;;;;;;;;;;;;14.26;64.92;99869.25;6047131;23;99253;-87
2020/12/24 04:23:39;;;;;;;;;;;;;;;14.43;64.77;99864.69;6046291;23;96664;-86
2020/12/24 04:26:05;;;;;;;;;;;;;;;14.62;63.43;99860.75;6046144;23;96918;-88
2020/12/24 04:28:31;;;;;;;;;;;;;;;14.26;64.54;99853.31;6044741;23;99343;-89
2020/12/24 04:30:57;;;;;;;;;;;;;;;14.37;64.20;99847.31;6045340;23;100550;-89
2020/12/24 04:33:23;;;;;;;;;;;;;;;14.36;64.08;99850.94;6043740;23;96679;-87
2020/12/24 04:35:52;;;;;;;;;;;;;;;14.26;64.36;99849.81;6045673;23;97493;-87
2020/12/24 04:38:19;;;;;;;;;;;;;;;14.06;64.71;99855.53;6045406;23;98179;-88
2020/12/24 04:40:48;;;;;;;;;;;;;;;14.02;65.08;99856.69;6046946;23;97608;-87
2020/12/24 04:43:14;;;;;;;;;;;;;;;13.91;65.37;99862.69;6048499;23;96640;-88
2020/12/24 04:45:40;;;;;;;;;;;;;;;13.94;64.95;99847.41;6048285;23;96650;-89
2020/12/24 04:48:06;;;;;;;;;;;;;;;14.08;64.50;99845.69;6047526;23;98102;-89
2020/12/24 04:50:32;;;;;;;;;;;;;;;13.80;65.20;99850.06;6051045;23;99717;-88
2020/12/24 04:52:58;;;;;;;;;;;;;;;13.44;65.86;99849.72;6049804;23;96632;-88
2020/12/24 04:55:27;;;;;;;;;;;;;;;13.53;65.82;99855.28;6047171;23;96600;-90
2020/12/24 04:57:56;;;;;;;;;;;;;;;13.43;65.37;99856.81;6046213;23;98322;-87
2020/12/24 05:00:21;;;;;;;;;;;;;;;13.60;64.28;99863.72;6055160;23;97898;-88
2020/12/24 05:03:00;;;;;;;;;;;;;;;13.61;64.07;99862.78;6056890;23;95853;-88
2020/12/24 05:05:26;;;;;;;;;;;;;;;13.65;63.40;99877.59;6056662;23;95991;-85
2020/12/24 05:07:52;;;;;;;;;;;;;;;13.78;63.04;99873.25;6056232;23;98076;-85
2020/12/24 05:10:18;;;;;;;;;;;;;;;13.60;63.03;99874.34;6045966;23;98151;-87
2020/12/24 05:12:44;;;;;;;;;;;;;;;13.40;63.86;99882.66;6044127;23;96490;-85
2020/12/24 05:15:24;;;;;;;;;;;;;;;13.54;62.68;99880.91;6054570;23;96511;-86
2020/12/24 05:17:50;;;;;;;;;;;;;;;13.52;62.48;99881.97;6038122;23;98307;-88
2020/12/24 05:20:16;;;;;;;;;;;;;;;13.56;62.17;99884.31;6035890;23;98235;-87
2020/12/24 05:22:42;;;;;;;;;;;;;;;13.45;62.18;99896.53;6011174;23;96656;-87
2020/12/24 05:25:11;;;;;;;;;;;;;;;13.66;61.71;99884.59;6035497;23;96698;-88
2020/12/24 05:27:37;;;;;;;;;;;;;;;13.55;61.73;99879.09;6035545;23;100497;-88
2020/12/24 05:30:04;;;;;;;;;;;;;;;13.60;61.71;99886.78;6036800;23;98132;-89
2020/12/24 05:32:31;;;;;;;;;;;;;;;13.62;61.59;99891.03;6034845;23;96901;-88
2020/12/24 05:35:07;;;;;;;;;;;;;;;13.91;61.05;99890.06;6039770;23;96693;-87
2020/12/24 05:37:32;;;;;;;;;;;;;;;13.76;61.19;99884.88;6033364;23;99271;-88
2020/12/24 05:39:58;;;;;;;;;;;;;;;13.80;61.47;99892.56;6033344;23;101759;-88
2020/12/24 05:42:24;;;;;;;;;;;;;;;13.98;60.80;99890.53;6034296;23;96669;-88
2020/12/24 05:44:51;;;;;;;;;;;;;;;14.02;60.32;99877.94;6033658;23;97221;-88
2020/12/24 05:47:27;;;;;;;;;;;;;;;13.52;61.98;99874.81;6034087;23;99416;-88
2020/12/24 05:49:56;;;;;;;;;;;;;;;13.45;61.07;99870.84;6033733;23;99555;-88
2020/12/24 05:52:22;;;;;;;;;;;;;;;13.63;60.59;99884.78;6035685;23;96672;-87
2020/12/24 05:55:00;;;;;;;;;;;;;;;13.56;60.75;99883.47;6037832;23;96641;-87
2020/12/24 05:57:27;;;;;;;;;;;;;;;13.59;60.51;99883.25;6035535;23;101306;-87
2020/12/24 05:59:54;;;;;;;;;;;;;;;13.67;59.44;99878.34;6036175;23;97816;-87
2020/12/24 06:02:24;;;;;;;;;;;;;;;13.53;59.68;99883.63;6035985;23;96624;-87
2020/12/24 06:04:52;;;;;;;;;;;;;;;13.56;58.91;99889.63;6034725;23;96723;-87
2020/12/24 06:07:31;;;;;;;;;;;;;;;13.67;58.02;99880.13;6033919;23;98139;-87
2020/12/24 06:10:04;;;;;;;;;;;;;;;13.67;58.23;99875.69;6033566;23;98089;-88
2020/12/24 06:12:30;;;;;;;;;;;;;;;13.58;57.81;99873.63;6033839;23;96789;-86
2020/12/24 06:14:56;;;;;;;;;;;;;;;13.05;58.93;99867.06;6032967;23;96868;-87
2020/12/24 06:17:23;;;;;;;;;;;;;;;13.52;57.59;99881.97;6033191;23;101476;-88
2020/12/24 06:19:49;;;;;;;;;;;;;;;13.35;57.83;99874.16;6033006;23;97964;-88
2020/12/24 06:22:17;;;;;;;;;;;;;;;13.10;58.87;99880.03;6033969;23;96682;-88
2020/12/24 06:24:43;;;;;;;;;;;;;;;13.28;58.03;99878.13;6032837;23;96536;-88
2020/12/24 06:27:16;;;;;;;;;;;;;;;12.98;59.07;99881.63;6032812;23;100948;-87
2020/12/24 06:29:45;;;;;;;;;;;;;;;12.90;59.14;99878.56;6032890;23;98066;-88
2020/12/24 06:32:12;;;;;;;;;;;;;;;12.95;58.41;99879.16;6035154;23;96674;-88
2020/12/24 06:34:41;;;;;;;;;;;;;;;12.99;58.01;99871.88;6036744;23;96723;-87
2020/12/24 06:37:14;;;;;;;;;;;;;;;12.87;58.16;99880.53;6036409;23;99453;-87
2020/12/24 06:39:42;;;;;;;;;;;;;;;12.59;58.85;99881.28;6037934;23;98697;-87
2020/12/24 06:42:32;;;;;;;;;;;;;;;12.86;57.58;99887.66;6035400;23;96554;-87
2020/12/24 06:44:57;;;;;;;;;;;;;;;13.08;57.04;99895.19;6044553;23;97024;-88
2020/12/24 06:47:23;;;;;;;;;;;;;;;12.80;57.43;99897.75;6037133;23;99042;-88
2020/12/24 06:49:49;;;;;;;;;;;;;;;12.86;57.24;99902.72;6035748;23;98874;-88
2020/12/24 06:52:26;;;;;;;;;;;;;;;12.85;57.16;99901.00;6037305;23;96733;-87
2020/12/24 06:55:11;;;;;;;;;;;;;;;12.97;57.15;99901.13;6034534;23;96674;-88
2020/12/24 06:57:37;;;;;;;;;;;;;;;12.96;57.12;99896.75;6034565;23;100137;-87
2020/12/24 07:00:17;;;;;;;;;;;;;;;12.71;57.48;99907.94;6035102;23;97781;-86
2020/12/24 07:02:43;;;;;;;;;;;;;;;12.86;56.66;99892.09;6037127;23;96881;-86
2020/12/24 07:05:35;;;;;;;;;;;;;;;13.08;55.90;99905.78;6040638;23;96795;-87
2020/12/24 07:08:01;;;;;;;;;;;;;;;12.47;56.73;99913.78;6037782;23;99272;-87
2020/12/24 07:10:43;;;;;;;;;;;;;;;12.14;57.16;99908.56;6036436;23;100044;-87
2020/12/24 07:13:10;;;;;;;;;;;;;;;11.62;58.85;99911.31;6040172;23;96590;-88
2020/12/24 07:15:42;;;;;;;;;;;;;;;11.99;57.99;99910.25;6044305;23;96769;-87
2020/12/24 07:18:10;;;;;;;;;;;;;;;12.25;57.21;99906.19;6038882;23;98166;-88
2020/12/24 07:20:36;;;;;;;;;;;;;;;12.31;56.41;99911.13;6043403;23;99254;-87
2020/12/24 07:23:02;;;;;;;;;;;;;;;12.44;55.12;99895.41;6050448;23;95995;-88
2020/12/24 07:25:34;;;;;;;;;;;;;;;12.57;54.78;99897.28;6053831;23;96769;-87
2020/12/24 07:28:00;;;;;;;;;;;;;;;12.66;54.81;99898.56;6054742;23;98198;-87
2020/12/24 07:30:26;;;;;;;;;;;;;;;12.27;55.34;99899.84;6053921;23;100632;-88
2020/12/24 07:32:54;;;;;;;;;;;;;;;12.57;54.96;99901.72;6056506;23;95989;-88
2020/12/24 07:35:20;;;;;;;;;;;;;;;12.82;54.17;99906.47;6056352;23;96006;-88
2020/12/24 07:37:49;;;;;;;;;;;;;;;12.79;54.06;99902.22;6029515;23;97683;-87
2020/12/24 07:40:15;;;;;;;;;;;;;;;12.91;53.65;99903.28;6055854;23;97801;-85
2020/12/24 07:42:41;;;;;;;;;;;;;;;13.01;53.05;99897.34;6031907;23;96121;-87
2020/12/24 07:45:09;;;;;;;;;;;;;;;12.70;53.96;99908.03;6056679;23;96508;-84
2020/12/24 07:47:35;;;;;;;;;;;;;;;12.71;54.06;99905.28;6056847;23;98254;-82
2020/12/24 07:50:01;;;;;;;;;;;;;;;12.99;53.49;99909.88;6057053;23;97352;-86
2020/12/24 07:52:27;;;;;;;;;;;;;;;12.66;54.61;99904.72;6055321;23;96652;-88
2020/12/24 07:54:53;;;;;;;;;;;;;;;12.77;54.13;99901.44;6055241;23;96052;-89
2020/12/24 07:57:19;;;;;;;;;;;;;;;12.64;54.22;99898.63;6055058;23;100108;-88
2020/12/24 07:59:45;;;;;;;;;;;;;;;12.70;53.93;99906.22;6054411;23;97984;-88
2020/12/24 08:02:15;;;;;;;;;;;;;;;13.08;53.13;99897.84;6053865;23;96111;-88
2020/12/24 08:04:40;;;;;;;;;;;;;;;13.10;52.87;99901.25;6052475;23;96476;-88
2020/12/24 08:07:09;;;;;;;;;;;;;;;12.72;53.45;99909.66;6052643;23;96849;-87
2020/12/24 08:09:35;;;;;;;;;;;;;;;12.89;53.36;99916.63;6051085;23;98879;-87
2020/12/24 08:12:04;;;;;;;;;;;;;;;12.96;52.78;99910.03;6029556;23;96706;-85
2020/12/24 08:14:42;;;;;;;;;;;;;;;12.96;52.83;99907.38;6058013;23;95892;-86
2020/12/24 08:17:12;;;;;;;;;;;;;;;12.77;53.01;99899.63;6056880;23;99382;-88
2020/12/24 08:19:41;;;;;;;;;;;;;;;12.87;53.20;99902.59;6054797;23;102540;-88
2020/12/24 08:22:11;;;;;;;;;;;;;;;13.11;52.38;99909.13;6049738;23;96566;-84
2020/12/24 08:24:39;;;;;;;;;;;;;;;12.93;52.55;99907.53;6046991;23;96533;-84
2020/12/24 08:27:05;;;;;;;;;;;;;;;13.02;52.53;99901.72;6046764;23;98125;-84
2020/12/24 08:29:31;;;;;;;;;;;;;;;13.13;52.45;99901.09;6048213;23;99098;-84
2020/12/24 08:31:58;;;;;;;;;;;;;;;12.82;53.58;99911.75;6051488;23;96793;-86
2020/12/24 08:34:24;;;;;;;;;;;;;;;12.69;53.85;99903.66;6053700;23;96479;-87
2020/12/24 08:36:52;;;;;;;;;;;;;;;12.76;53.85;99902.38;6055596;23;100069;-87
2020/12/24 08:39:19;;;;;;;;;;;;;;;12.80;53.83;99900.41;6055263;23;98408;-87
2020/12/24 08:41:46;;;;;;;;;;;;;;;12.70;54.55;99916.84;6046108;23;96663;-87
2020/12/24 08:44:17;;;;;;;;;;;;;;;12.38;54.78;99901.91;6054277;23;96144;-83
2020/12/24 08:46:43;;;;;;;;;;;;;;;12.93;53.95;99899.59;6055003;23;97974;-88
2020/12/24 08:49:22;;;;;;;;;;;;;;;12.88;53.53;99895.50;6055155;23;98352;-87
2020/12/24 08:51:50;;;;;;;;;;;;;;;12.77;53.82;99901.44;6056557;23;95947;-88
2020/12/24 08:54:17;;;;;;;;;;;;;;;12.76;53.66;99889.13;6027263;23;97057;-88
2020/12/24 08:56:43;;;;;;;;;;;;;;;12.57;53.73;99881.38;6050286;23;96999;-87
2020/12/24 08:59:11;;;;;;;;;;;;;;;12.73;53.62;99889.31;6055463;23;99117;-86
2020/12/24 09:01:41;;;;;;;;;;;;;;;12.70;53.42;99892.13;6055570;23;96600;-87
2020/12/24 09:04:10;;;;;;;;;;;;;;;12.57;53.60;99899.94;6052424;23;96875;-87
2020/12/24 09:06:36;;;;;;;;;;;;;;;12.99;52.54;99882.50;6055267;23;96620;-86
2020/12/24 09:09:02;;;;;;;;;;;;;;;12.94;51.70;99898.66;6055187;23;98094;-83
2020/12/24 09:11:29;;;;;;;;;;;;;;;12.91;52.15;99885.59;6056254;23;96185;-85
2020/12/24 09:13:55;;;;;;;;;;;;;;;12.87;51.96;99883.19;6056697;23;96772;-87
2020/12/24 09:16:22;;;;;;;;;;;;;;;13.08;51.11;99884.56;6054570;23;97814;-87
2020/12/24 09:18:47;;;;;;;;;;;;;;;13.19;51.42;99890.16;6046458;23;101032;-88
2020/12/24 09:21:13;;;;;;;;;;;;;;;12.97;51.52;99887.88;6050122;23;96586;-85
2020/12/24 09:23:39;;;;;;;;;;;;;;;13.13;51.74;99885.19;6052886;23;96079;-87
2020/12/24 09:26:05;;;;;;;;;;;;;;;13.10;50.89;99891.50;6048285;23;97870;-86
2020/12/24 09:28:31;;;;;;;;;;;;;;;13.09;51.45;99889.78;6041983;23;97797;-86
2020/12/24 09:30:58;;;;;;;;;;;;;;;13.20;50.94;99888.31;6038543;23;96578;-86
2020/12/24 09:33:24;;;;;;;;;;;;;;;13.28;50.62;99889.59;6038293;23;96624;-85
2020/12/24 09:38:36;;;;;;;;;;;;;;;13.37;50.35;99883.72;6017216;23;98161;-85
2020/12/24 09:41:02;;;;;;;;;;;;;;;13.30;50.13;99882.41;6036258;23;96583;-86
2020/12/24 09:43:28;;;;;;;;;;;;;;;13.06;50.40;99876.69;6048041;23;96853;-86
2020/12/24 09:46:00;;;;;;;;;;;;;;;13.36;49.99;99879.38;6053513;23;101256;-84
2020/12/24 09:48:26;;;;;;;;;;;;;;;12.78;50.92;99869.53;6054635;23;98152;-88
2020/12/24 09:50:52;;;;;;;;;;;;;;;12.97;50.23;99866.66;6054856;23;95903;-88
2020/12/24 09:53:18;;;;;;;;;;;;;;;13.27;49.81;99865.78;6023337;23;97568;-89
2020/12/24 09:55:44;;;;;;;;;;;;;;;13.25;49.80;99865.91;6052853;23;100098;-88
2020/12/24 09:58:10;;;;;;;;;;;;;;;12.88;50.21;99869.84;6028707;23;97493;-88
2020/12/24 10:00:36;;;;;;;;;;;;;;;13.21;49.86;99863.50;6056019;23;95941;-87
2020/12/24 10:03:03;;;;;;;;;;;;;;;13.54;49.19;99866.78;6055569;23;96014;-85
2020/12/24 10:05:28;;;;;;;;;;;;;;;13.63;48.88;99862.69;6053461;23;99680;-85
2020/12/24 10:07:57;;;;;;;;;;;;;;;13.60;48.75;99850.47;6028345;23;97534;-85
2020/12/24 10:10:23;;;;;;;;;;;;;;;13.78;48.57;99854.66;6048310;23;96666;-85
2020/12/24 10:12:49;;;;;;;;;;;;;;;13.04;49.77;99854.75;6043132;23;96797;-86
2020/12/24 10:15:15;;;;;;;;;;;;;;;13.16;49.73;99848.72;6039882;23;99874;-87
2020/12/24 10:17:41;;;;;;;;;;;;;;;13.20;49.84;99848.53;6051043;23;99369;-86
2020/12/24 10:20:08;;;;;;;;;;;;;;;13.56;49.05;99848.97;6054224;23;96678;-86
2020/12/24 10:22:34;;;;;;;;;;;;;;;13.57;49.16;99848.00;6054391;23;95979;-84
2020/12/24 10:25:00;;;;;;;;;;;;;;;13.42;49.99;99843.63;6051823;23;99432;-88
2020/12/24 10:27:26;;;;;;;;;;;;;;;13.47;49.52;99841.56;6045933;23;98047;-86
2020/12/24 10:29:52;;;;;;;;;;;;;;;13.19;49.97;99841.53;6047293;23;96696;-87
2020/12/24 10:32:17;;;;;;;;;;;;;;;13.43;49.81;99837.38;6047662;23;96765;-83
2020/12/24 10:34:43;;;;;;;;;;;;;;;13.37;49.76;99841.28;6037076;23;99325;-82
2020/12/24 10:37:10;;;;;;;;;;;;;;;13.21;50.12;99837.84;6042378;23;99111;-87
2020/12/24 10:39:36;;;;;;;;;;;;;;;13.39;49.86;99833.22;6036951;23;96758;-80
2020/12/24 10:42:01;;;;;;;;;;;;;;;13.15;50.81;99824.94;6044100;23;96919;-82
2020/12/24 10:44:28;;;;;;;;;;;;;;;13.09;50.60;99831.44;6049925;23;99791;-82
2020/12/24 10:46:55;;;;;;;;;;;;;;;13.12;50.93;99828.66;6048204;23;99906;-85
2020/12/24 10:49:21;;;;;;;;;;;;;;;13.40;50.19;99837.56;6053470;23;96706;-85
2020/12/24 10:51:47;;;;;;;;;;;;;;;13.43;50.32;99822.31;6051099;23;96602;-83
2020/12/24 10:54:13;;;;;;;;;;;;;;;13.30;50.39;99831.13;6040403;23;98306;-83
2020/12/24 10:56:40;;;;;;;;;;;;;;;12.95;51.54;99827.91;6040038;23;96966;-85
2020/12/24 10:59:06;;;;;;;;;;;;;;;12.71;52.83;99820.47;6036626;23;96680;-82
2020/12/24 11:01:31;;;;;;;;;;;;;;;12.56;53.77;99849.66;6035226;23;96844;-82
2020/12/24 11:03:57;;;;;;;;;;;;;;;12.35;54.73;99836.69;6034947;23;100872;-83
2020/12/24 11:06:32;;;;;;;;;;;;;;;12.07;55.78;99839.22;6035975;23;98140;-82
2020/12/24 11:08:58;;;;;;;;;;;;;;;12.32;56.01;99836.03;6034532;23;97010;-82
2020/12/24 11:11:25;;;;;;;;;;;;;;;12.30;54.79;99825.50;6032715;23;96928;-83
2020/12/24 11:13:51;;;;;;;;;;;;;;;11.88;56.41;99830.59;6034462;23;98177;-82
2020/12/24 11:16:21;;;;;;;;;;;;;;;12.06;56.31;99828.69;6035007;23;100187;-86
2020/12/24 11:18:52;;;;;;;;;;;;;;;12.48;55.05;99830.69;6017053;23;96573;-86
2020/12/24 11:21:19;;;;;;;;;;;;;;;12.26;55.55;99846.97;6039200;23;96573;-86
2020/12/24 11:23:53;;;;;;;;;;;;;;;12.06;56.01;99848.09;6045183;23;99118;-82
2020/12/24 11:26:21;;;;;;;;;;;;;;;11.38;56.21;99851.78;6037706;23;96774;-83
2020/12/24 11:28:49;;;;;;;;;;;;;;;10.61;57.54;99862.78;6037060;23;96776;-84
2020/12/24 11:31:21;;;;;;;;;;;;;;;10.96;56.72;99852.25;6038785;23;96695;-83
2020/12/24 11:33:47;;;;;;;;;;;;;;;11.45;54.70;99851.38;6036747;23;99223;-85
2020/12/24 11:36:15;;;;;;;;;;;;;;;10.89;55.51;99842.91;6041545;23;99607;-84
2020/12/24 11:38:42;;;;;;;;;;;;;;;11.59;53.71;99832.97;6043348;23;96743;-81
2020/12/24 11:41:11;;;;;;;;;;;;;;;11.73;52.71;99837.53;6040770;23;97087;-82
2020/12/24 11:43:37;;;;;;;;;;;;;;;11.96;52.23;99839.78;6043672;23;97190;-84
2020/12/24 11:46:07;;;;;;;;;;;;;;;11.92;51.49;99840.91;6042688;23;98826;-84
2020/12/24 11:48:33;;;;;;;;;;;;;;;11.68;52.14;99847.53;6046378;23;96706;-85
2020/12/24 11:51:00;;;;;;;;;;;;;;;11.62;52.30;99836.41;6042962;23;96775;-85
2020/12/24 11:53:27;;;;;;;;;;;;;;;11.78;51.85;99837.31;6042873;23;96982;-83
2020/12/24 11:55:53;;;;;;;;;;;;;;;11.44;52.65;99841.72;6043265;23;101576;-85
2020/12/24 11:58:20;;;;;;;;;;;;;;;11.96;51.59;99842.44;6044799;23;97052;-84
2020/12/24 12:00:47;;;;;;;;;;;;;;;11.36;53.23;99849.22;6041318;23;96679;-85
2020/12/24 12:03:21;;;;;;;;;;;;;;;11.78;52.26;99847.91;6043429;23;99354;-84
2020/12/24 12:05:48;;;;;;;;;;;;;;;11.41;53.81;99849.84;6051749;23;100005;-86
2020/12/24 12:08:17;;;;;;;;;;;;;;;11.82;52.65;99857.38;6052127;23;96579;-84
2020/12/24 12:10:59;;;;;;;;;;;;;;;11.62;53.59;99857.59;6025187;23;96580;-84
2020/12/24 12:13:28;;;;;;;;;;;;;;;11.18;54.54;99853.69;6023967;23;97596;-84
2020/12/24 12:15:54;;;;;;;;;;;;;;;11.42;54.32;99853.34;6048731;23;98735;-83
2020/12/24 12:18:21;;;;;;;;;;;;;;;11.67;54.37;99860.81;6050964;23;96781;-84
2020/12/24 12:20:47;;;;;;;;;;;;;;;11.81;53.90;99869.78;6054035;23;96471;-85
2020/12/24 12:23:13;;;;;;;;;;;;;;;11.15;56.00;99871.50;6050083;23;99955;-83
2020/12/24 12:25:40;;;;;;;;;;;;;;;11.35;55.49;99881.91;6050890;23;101541;-85
2020/12/24 12:30:49;;;;;;;;;;;;;;;11.03;56.42;99891.47;6044955;23;96904;-84
2020/12/24 12:33:15;;;;;;;;;;;;;;;10.76;58.53;99906.09;6044649;23;98295;-84
2020/12/24 12:35:42;;;;;;;;;;;;;;;10.03;61.12;99911.38;6043412;23;99020;-85
2020/12/24 12:38:08;;;;;;;;;;;;;;;10.32;59.85;99921.44;6044529;23;96705;-84
2020/12/24 12:40:34;;;;;;;;;;;;;;;8.95;64.33;99924.91;6045879;23;96796;-85
2020/12/24 12:42:59;;;;;;;;;;;;;;;9.17;63.72;99940.69;6054596;23;100026;-83
2020/12/24 12:45:25;;;;;;;;;;;;;;;8.86;64.30;99954.28;6056286;23;99931;-84
2020/12/24 12:50:26;;;;;;;;;;;;;;;8.26;64.46;99971.56;6026918;23;96051;-84
2020/12/24 12:52:55;;;;;;;;;;;;;;;7.88;65.52;99988.75;6019925;23;98312;-87
2020/12/24 12:55:32;;;;;;;;;;;;;;;7.29;66.44;99985.59;6018965;23;98112;-84